createdAt,value
2022-12-13T00:00:41.615Z,28.68
2022-12-13T00:03:11.959Z,28.72
2022-12-13T00:05:48.283Z,28.72
2022-12-13T00:08:19.055Z,28.70
2022-12-13T00:10:49.291Z,28.72
2022-12-13T00:13:19.248Z,28.72
2022-12-13T00:16:01.952Z,28.74
2022-12-13T00:18:32.943Z,28.71
2022-12-13T00:21:06.578Z,28.75
2022-12-13T00:23:37.637Z,28.72
2022-12-13T00:26:09.638Z,28.74
2022-12-13T00:28:40.814Z,28.72
2022-12-13T00:31:52.989Z,28.75
2022-12-13T00:34:02.755Z,28.77
2022-12-13T00:36:32.884Z,28.76
2022-12-13T00:39:03.710Z,28.77
2022-12-13T00:41:36.786Z,28.72
2022-12-13T00:44:08.011Z,28.74
2022-12-13T00:46:38.153Z,28.76
2022-12-13T00:49:08.258Z,28.75
2022-12-13T00:51:38.305Z,28.75
2022-12-13T00:54:08.542Z,28.77
2022-12-13T00:56:40.405Z,28.77
2022-12-13T00:59:10.813Z,28.78
2022-12-13T01:01:41.232Z,28.77
2022-12-13T01:04:13.235Z,28.77
2022-12-13T01:06:47.144Z,28.76
2022-12-13T01:09:23.712Z,28.83
2022-12-13T01:11:54.279Z,28.81
2022-12-13T01:14:24.455Z,28.80
2022-12-13T01:16:57.927Z,28.83
2022-12-13T01:19:31.399Z,28.83
2022-12-13T01:22:07.182Z,28.80
2022-12-13T01:24:37.321Z,28.82
2022-12-13T01:27:07.438Z,28.84
2022-12-13T01:29:37.439Z,28.83
2022-12-13T01:32:08.005Z,28.83
2022-12-13T01:34:38.202Z,28.82
2022-12-13T01:37:08.440Z,28.83
2022-12-13T01:39:38.680Z,28.85
2022-12-13T01:42:08.921Z,28.86
2022-12-13T01:45:00.441Z,28.84
2022-12-13T01:47:50.720Z,28.85
2022-12-13T01:50:52.036Z,28.82
2022-12-13T01:53:27.232Z,28.80
2022-12-13T01:56:04.410Z,28.84
2022-12-13T01:58:35.529Z,28.86
2022-12-13T02:01:05.953Z,28.89
2022-12-13T02:03:37.212Z,28.87
2022-12-13T02:06:41.373Z,28.84
2022-12-13T02:09:12.710Z,28.86
2022-12-13T02:11:45.807Z,28.85
2022-12-13T02:14:15.998Z,28.86
2022-12-13T02:17:00.270Z,28.88
2022-12-13T02:19:36.546Z,28.88
2022-12-13T02:22:24.425Z,28.89
2022-12-13T02:25:11.638Z,28.89
2022-12-13T02:28:31.893Z,28.91
2022-12-13T02:31:12.103Z,28.91
2022-12-13T02:34:15.304Z,28.91
2022-12-13T02:37:03.790Z,28.91
2022-12-13T02:39:39.226Z,28.93
2022-12-13T02:42:22.167Z,28.91
2022-12-13T02:45:03.417Z,28.92
2022-12-13T02:47:35.768Z,28.93
2022-12-13T02:50:10.021Z,28.92
2022-12-13T02:52:42.724Z,28.94
2022-12-13T02:55:17.373Z,28.94
2022-12-13T02:57:50.767Z,28.95
2022-12-13T03:00:26.132Z,28.94
2022-12-13T03:03:42.780Z,28.97
2022-12-13T03:06:33.618Z,28.99
2022-12-13T03:09:13.393Z,28.99
2022-12-13T03:12:11.379Z,28.99
2022-12-13T03:15:07.566Z,29.00
2022-12-13T03:17:45.568Z,28.98
2022-12-13T03:20:25.248Z,29.02
2022-12-13T03:22:56.872Z,29.00
2022-12-13T03:25:32.024Z,28.97
2022-12-13T03:28:04.366Z,29.00
2022-12-13T03:30:36.132Z,28.98
2022-12-13T03:33:06.432Z,29.02
2022-12-13T03:35:45.069Z,29.01
2022-12-13T03:38:22.276Z,29.03
2022-12-13T03:41:00.851Z,29.05
2022-12-13T03:43:31.815Z,29.04
2022-12-13T03:46:03.419Z,29.05
2022-12-13T03:48:33.704Z,29.06
2022-12-13T03:51:05.010Z,29.06
2022-12-13T03:53:35.573Z,29.08
2022-12-13T03:58:53.759Z,29.08
2022-12-13T04:01:25.371Z,29.07
2022-12-13T04:03:55.573Z,29.10
2022-12-13T04:06:44.135Z,29.07
2022-12-13T04:09:14.272Z,29.11
2022-12-13T04:12:02.927Z,29.10
2022-12-13T04:14:33.105Z,29.12
2022-12-13T04:17:03.312Z,29.11
2022-12-13T04:19:33.508Z,29.13
2022-12-13T04:22:24.865Z,29.11
2022-12-13T04:27:41.089Z,29.13
2022-12-13T04:30:11.809Z,29.12
2022-12-13T04:32:41.981Z,29.13
2022-12-13T04:35:12.032Z,29.16
2022-12-13T04:37:43.321Z,29.15
2022-12-13T04:40:14.360Z,29.16
2022-12-13T04:43:10.202Z,29.19
2022-12-13T04:45:59.150Z,29.17
2022-12-13T04:48:47.575Z,29.16
2022-12-13T04:51:19.110Z,29.16
2022-12-13T04:53:48.892Z,29.17
2022-12-13T04:56:18.896Z,29.17
2022-12-13T04:58:49.271Z,29.17
2022-12-13T05:01:19.481Z,29.15
2022-12-13T05:03:49.615Z,29.19
2022-12-13T05:06:26.610Z,29.19
2022-12-13T05:09:01.067Z,29.19
2022-12-13T05:11:35.815Z,29.19
2022-12-13T05:14:06.347Z,29.21
2022-12-13T05:16:36.443Z,29.22
2022-12-13T05:19:06.432Z,29.22
2022-12-13T05:21:37.334Z,29.23
2022-12-13T05:24:08.721Z,29.22
2022-12-13T05:26:39.234Z,29.21
2022-12-13T05:29:09.405Z,29.21
2022-12-13T05:31:39.425Z,29.21
2022-12-13T05:34:09.396Z,29.22
2022-12-13T05:36:39.384Z,29.22
2022-12-13T05:39:29.263Z,29.22
2022-12-13T05:42:02.870Z,29.22
2022-12-13T05:44:35.983Z,29.25
2022-12-13T05:47:06.243Z,29.23
2022-12-13T05:49:36.396Z,29.25
2022-12-13T05:52:19.382Z,29.25
2022-12-13T05:55:08.474Z,29.25
2022-12-13T05:57:39.284Z,29.28
2022-12-13T06:00:28.534Z,29.27
2022-12-13T06:05:47.036Z,29.27
2022-12-13T06:08:25.295Z,29.27
2022-12-13T06:11:11.533Z,29.29
2022-12-13T06:13:44.497Z,29.31
2022-12-13T06:16:22.520Z,29.30
2022-12-13T06:19:12.400Z,29.32
2022-12-13T06:21:46.322Z,29.32
2022-12-13T06:24:18.504Z,29.29
2022-12-13T06:26:48.773Z,29.31
2022-12-13T06:29:23.781Z,29.31
2022-12-13T06:32:03.786Z,29.33
2022-12-13T06:34:37.111Z,29.33
2022-12-13T06:37:10.121Z,29.34
2022-12-13T06:39:40.648Z,29.33
2022-12-13T06:42:22.066Z,29.35
2022-12-13T06:45:11.108Z,29.37
2022-12-13T06:47:41.259Z,29.38
2022-12-13T06:50:11.818Z,29.38
2022-12-13T06:55:27.656Z,29.39
2022-12-13T06:58:00.402Z,29.39
2022-12-13T07:00:36.833Z,29.39
2022-12-13T07:03:13.792Z,29.42
2022-12-13T07:05:44.012Z,29.40
2022-12-13T07:08:14.237Z,29.41
2022-12-13T07:10:53.158Z,29.41
2022-12-13T07:13:24.624Z,29.40
2022-12-13T07:15:54.733Z,29.42
2022-12-13T07:18:31.412Z,29.41
2022-12-13T07:21:01.406Z,29.41
2022-12-13T07:23:32.365Z,29.42
2022-12-13T07:26:02.506Z,29.44
2022-12-13T07:28:35.691Z,29.45
2022-12-13T07:31:08.914Z,29.44
2022-12-13T07:33:39.478Z,29.45
2022-12-13T07:36:14.886Z,29.45
2022-12-13T07:38:45.260Z,29.44
2022-12-13T07:41:23.017Z,29.45
2022-12-13T07:43:56.057Z,29.45
2022-12-13T07:46:32.672Z,29.46
2022-12-13T07:49:08.113Z,29.49
2022-12-13T07:51:38.601Z,29.46
2022-12-13T07:54:10.704Z,29.45
2022-12-13T07:56:40.934Z,29.46
2022-12-13T07:59:12.926Z,29.46
2022-12-13T08:01:43.364Z,29.45
2022-12-13T08:04:13.562Z,29.46
2022-12-13T08:06:43.825Z,29.48
2022-12-13T08:09:13.967Z,29.50
2022-12-13T08:11:44.090Z,29.50
2022-12-13T08:14:14.228Z,29.51
2022-12-13T08:16:44.244Z,29.51
2022-12-13T08:19:14.384Z,29.52
2022-12-13T08:22:02.088Z,29.53
2022-12-13T08:24:33.624Z,29.54
2022-12-13T08:27:04.250Z,29.53
2022-12-13T08:29:37.274Z,29.52
2022-12-13T08:32:10.200Z,29.51
2022-12-13T08:34:40.612Z,29.53
2022-12-13T08:37:10.899Z,29.52
2022-12-13T08:39:41.940Z,29.51
2022-12-13T08:42:19.402Z,29.49
2022-12-13T08:44:52.302Z,29.46
2022-12-13T08:47:26.233Z,29.50
2022-12-13T08:50:04.708Z,29.53
2022-12-13T08:52:40.355Z,29.50
2022-12-13T08:55:18.084Z,29.52
2022-12-13T08:57:49.509Z,29.53
2022-12-13T09:00:22.127Z,29.53
2022-12-13T09:02:52.772Z,29.52
2022-12-13T09:05:33.345Z,29.53
2022-12-13T09:08:23.553Z,29.54
2022-12-13T09:11:11.421Z,29.54
2022-12-13T09:13:52.886Z,29.52
2022-12-13T09:16:32.726Z,29.53
2022-12-13T09:19:25.273Z,29.50
2022-12-13T09:22:02.627Z,29.52
2022-12-13T09:24:36.607Z,29.52
2022-12-13T09:27:09.198Z,29.51
2022-12-13T09:29:41.482Z,29.52
2022-12-13T09:32:11.354Z,29.52
2022-12-13T09:34:41.437Z,29.52
2022-12-13T09:37:22.921Z,29.53
2022-12-13T09:39:55.238Z,29.52
2022-12-13T09:42:30.208Z,29.52
2022-12-13T09:45:05.544Z,29.52
2022-12-13T09:47:46.953Z,29.53
2022-12-13T09:50:17.710Z,29.51
2022-12-13T09:53:00.238Z,29.51
2022-12-13T09:55:39.904Z,29.49
2022-12-13T09:58:17.360Z,29.47
2022-12-13T10:00:50.098Z,29.50
2022-12-13T10:03:23.103Z,29.47
2022-12-13T10:06:01.456Z,29.48
2022-12-13T10:08:39.198Z,29.43
2022-12-13T10:11:09.385Z,29.46
2022-12-13T10:13:50.755Z,29.47
2022-12-13T10:16:23.448Z,29.47
2022-12-13T10:18:54.589Z,29.46
2022-12-13T10:21:43.624Z,29.46
2022-12-13T10:24:37.377Z,29.47
2022-12-13T10:27:20.351Z,29.47
2022-12-13T10:30:10.138Z,29.49
2022-12-13T10:32:54.873Z,29.46
2022-12-13T10:35:32.446Z,29.49
2022-12-13T10:38:23.955Z,29.46
2022-12-13T10:41:02.271Z,29.49
2022-12-13T10:43:32.614Z,29.47
2022-12-13T10:46:04.988Z,29.48
2022-12-13T10:48:39.204Z,29.45
2022-12-13T10:51:15.353Z,29.48
2022-12-13T10:53:50.335Z,29.46
2022-12-13T10:56:23.351Z,29.46
2022-12-13T10:59:34.560Z,29.47
2022-12-13T11:02:40.186Z,29.46
2022-12-13T11:05:32.092Z,29.44
2022-12-13T11:08:25.449Z,29.44
2022-12-13T11:11:04.465Z,29.44
2022-12-13T11:13:48.686Z,29.42
2022-12-13T11:16:25.198Z,29.43
2022-12-13T11:19:00.037Z,29.44
2022-12-13T11:21:36.119Z,29.41
2022-12-13T11:24:11.054Z,29.40
2022-12-13T11:26:46.946Z,29.41
2022-12-13T11:29:47.592Z,29.41
2022-12-13T11:33:03.866Z,29.43
2022-12-13T11:35:56.512Z,29.39
2022-12-13T11:38:35.733Z,29.42
2022-12-13T11:41:31.278Z,29.39
2022-12-13T11:44:12.575Z,29.41
2022-12-13T11:46:52.038Z,29.38
2022-12-13T11:49:36.766Z,29.41
2022-12-13T11:52:49.728Z,29.39
2022-12-13T11:55:38.822Z,29.39
2022-12-13T12:01:24.796Z,29.39
2022-12-13T12:04:21.535Z,29.40
2022-12-13T12:07:31.047Z,29.33
2022-12-13T12:10:21.077Z,29.35
2022-12-13T12:12:58.184Z,29.37
2022-12-13T12:15:42.095Z,29.33
2022-12-13T12:18:21.434Z,29.39
2022-12-13T12:20:54.302Z,29.34
2022-12-13T12:23:48.375Z,29.33
2022-12-13T12:26:24.745Z,29.35
2022-12-13T12:29:04.085Z,29.35
2022-12-13T12:31:50.886Z,29.30
2022-12-13T12:34:52.701Z,29.29
2022-12-13T12:37:40.459Z,29.28
2022-12-13T12:41:14.309Z,29.26
2022-12-13T12:43:35.593Z,29.25
2022-12-13T12:46:14.261Z,29.28
2022-12-13T12:49:25.978Z,29.28
2022-12-13T12:52:03.667Z,29.28
2022-12-13T12:54:39.470Z,29.24
2022-12-13T12:57:18.410Z,29.22
2022-12-13T13:00:07.197Z,29.24
2022-12-13T13:03:03.755Z,29.29
2022-12-13T13:05:43.778Z,29.30
2022-12-13T13:08:23.397Z,29.26
2022-12-13T13:10:55.463Z,29.23
2022-12-13T13:14:03.213Z,29.22
2022-12-13T13:16:37.801Z,29.22
2022-12-13T13:19:13.822Z,29.23
2022-12-13T13:22:43.339Z,29.23
2022-12-13T13:25:40.107Z,29.22
2022-12-13T13:28:25.206Z,29.18
2022-12-13T13:31:11.446Z,29.20
2022-12-13T13:33:46.470Z,29.19
2022-12-13T13:36:49.872Z,29.15
2022-12-13T13:39:29.553Z,29.16
2022-12-13T13:42:19.326Z,29.12
2022-12-13T13:44:52.318Z,29.10
2022-12-13T13:47:22.500Z,29.12
2022-12-13T13:50:14.419Z,29.13
2022-12-13T13:52:48.885Z,29.09
2022-12-13T13:55:38.292Z,29.11
2022-12-13T13:58:33.232Z,29.07
2022-12-13T14:01:12.356Z,29.05
2022-12-13T14:03:43.444Z,29.00
2022-12-13T14:06:41.134Z,29.02
2022-12-13T14:09:28.935Z,29.02
2022-12-13T14:12:08.104Z,29.05
2022-12-13T14:15:01.430Z,29.04
2022-12-13T14:17:52.922Z,29.08
2022-12-13T14:20:58.877Z,29.05
2022-12-13T14:24:03.097Z,29.07
2022-12-13T14:27:13.852Z,29.07
2022-12-13T14:29:48.727Z,29.02
2022-12-13T14:32:32.592Z,29.03
2022-12-13T14:35:24.691Z,29.02
2022-12-13T14:38:08.397Z,28.97
2022-12-13T14:40:49.818Z,28.91
2022-12-13T14:43:26.911Z,28.96
2022-12-13T14:46:06.217Z,28.92
2022-12-13T14:48:48.077Z,28.89
2022-12-13T14:51:41.871Z,28.91
2022-12-13T14:54:25.863Z,28.92
2022-12-13T14:57:04.714Z,28.96
2022-12-13T14:59:36.012Z,28.99
2022-12-13T15:02:08.292Z,28.99
2022-12-13T15:04:40.120Z,29.01
2022-12-13T15:07:40.080Z,29.05
2022-12-13T15:10:25.149Z,29.08
2022-12-13T15:12:56.915Z,29.12
2022-12-13T15:15:34.512Z,29.13
2022-12-13T15:18:10.235Z,29.13
2022-12-13T15:20:48.606Z,29.14
2022-12-13T15:23:34.738Z,29.16
2022-12-13T15:26:28.731Z,29.14
2022-12-13T15:29:10.399Z,29.15
2022-12-13T15:31:49.072Z,29.19
2022-12-13T15:34:31.710Z,29.22
2022-12-13T15:37:30.415Z,29.23
2022-12-13T15:40:08.407Z,29.20
2022-12-13T15:42:41.342Z,29.21
2022-12-13T15:45:37.116Z,29.17
2022-12-13T15:48:08.333Z,29.20
2022-12-13T15:50:47.244Z,29.16
2022-12-13T15:53:30.966Z,29.16
2022-12-13T15:56:07.882Z,29.16
2022-12-13T15:58:40.420Z,29.15
2022-12-13T16:01:34.646Z,29.13
2022-12-13T16:04:07.610Z,29.11
2022-12-13T16:06:38.667Z,29.07
2022-12-13T16:09:10.271Z,29.07
2022-12-13T16:11:54.115Z,29.05
2022-12-13T16:14:33.683Z,29.03
2022-12-13T16:17:28.586Z,29.03
2022-12-13T16:20:09.312Z,29.03
2022-12-13T16:22:40.542Z,29.01
2022-12-13T16:25:15.437Z,29.01
2022-12-13T16:27:49.368Z,29.01
2022-12-13T16:30:50.412Z,28.99
2022-12-13T16:33:27.252Z,29.00
2022-12-13T16:36:00.917Z,29.02
2022-12-13T16:38:31.152Z,29.01
2022-12-13T16:41:08.245Z,28.96
2022-12-13T16:43:55.061Z,28.95
2022-12-13T16:47:14.777Z,28.99
2022-12-13T16:49:28.828Z,28.97
2022-12-13T16:51:59.408Z,28.98
2022-12-13T16:54:29.712Z,29.00
2022-12-13T16:57:00.323Z,28.95
2022-12-13T16:59:30.847Z,28.97
2022-12-13T17:02:01.489Z,28.96
2022-12-13T17:04:32.037Z,28.95
2022-12-13T17:07:02.385Z,28.95
2022-12-13T17:09:37.299Z,28.93
2022-12-13T17:12:08.264Z,28.90
2022-12-13T17:14:38.610Z,28.92
2022-12-13T17:17:12.859Z,28.93
2022-12-13T17:19:46.128Z,28.90
2022-12-13T17:22:16.438Z,28.89
2022-12-13T17:24:47.061Z,28.90
2022-12-13T17:27:18.128Z,28.89
2022-12-13T17:29:50.684Z,28.89
2022-12-13T17:32:21.054Z,28.85
2022-12-13T17:34:51.430Z,28.86
2022-12-13T17:37:22.250Z,28.84
2022-12-13T17:39:52.561Z,28.84
2022-12-13T17:42:22.819Z,28.83
2022-12-13T17:44:52.990Z,28.82
2022-12-13T17:47:23.445Z,28.84
2022-12-13T17:49:53.722Z,28.82
2022-12-13T17:52:23.896Z,28.83
2022-12-13T17:54:54.066Z,28.83
2022-12-13T17:57:24.239Z,28.81
2022-12-13T17:59:54.607Z,28.85
2022-12-13T18:02:25.280Z,28.81
2022-12-13T18:04:55.635Z,28.81
2022-12-13T18:07:25.777Z,28.81
2022-12-13T18:09:56.041Z,28.83
2022-12-13T18:12:26.275Z,28.80
2022-12-13T18:14:56.716Z,28.80
2022-12-13T18:17:46.620Z,28.76
2022-12-13T18:20:18.254Z,28.75
2022-12-13T18:22:51.314Z,28.72
2022-12-13T18:25:21.797Z,28.75
2022-12-13T18:27:54.968Z,28.67
2022-12-13T18:30:30.303Z,28.67
2022-12-13T18:33:01.603Z,28.67
2022-12-13T18:35:31.905Z,28.64
2022-12-13T18:38:02.288Z,28.64
2022-12-13T18:40:33.189Z,28.62
2022-12-13T18:43:03.536Z,28.60
2022-12-13T18:45:34.263Z,28.61
2022-12-13T18:48:04.639Z,28.60
2022-12-13T18:50:36.143Z,28.60
2022-12-13T18:53:06.452Z,28.61
2022-12-13T18:55:36.505Z,28.61
2022-12-13T18:58:06.677Z,28.64
2022-12-13T19:00:36.928Z,28.64
2022-12-13T19:03:07.724Z,28.65
2022-12-13T19:05:37.993Z,28.62
2022-12-13T19:08:08.255Z,28.63
2022-12-13T19:10:38.420Z,28.62
2022-12-13T19:13:08.890Z,28.59
2022-12-13T19:15:42.226Z,28.56
2022-12-13T19:18:13.341Z,28.57
2022-12-13T19:20:54.241Z,28.57
2022-12-13T19:23:24.723Z,28.59
2022-12-13T19:25:55.176Z,28.59
2022-12-13T19:28:25.671Z,28.54
2022-12-13T19:30:55.739Z,28.61
2022-12-13T19:33:26.101Z,28.58
2022-12-13T19:35:56.964Z,28.59
2022-12-13T19:38:27.412Z,28.62
2022-12-13T19:40:58.097Z,28.56
2022-12-13T19:43:28.692Z,28.55
2022-12-13T19:45:59.599Z,28.54
2022-12-13T19:48:29.729Z,28.54
2022-12-13T19:51:04.789Z,28.57
2022-12-13T19:53:35.471Z,28.56
2022-12-13T19:56:11.879Z,28.54
2022-12-13T19:58:42.646Z,28.52
2022-12-13T20:01:13.959Z,28.53
2022-12-13T20:03:47.408Z,28.54
2022-12-13T20:06:21.241Z,28.46
2022-12-13T20:08:52.067Z,28.48
2022-12-13T20:11:25.391Z,28.49
2022-12-13T20:13:58.833Z,28.48
2022-12-13T20:16:30.391Z,28.51
2022-12-13T20:19:02.680Z,28.51
2022-12-13T20:21:33.275Z,28.53
2022-12-13T20:24:03.686Z,28.52
2022-12-13T20:26:35.449Z,28.51
2022-12-13T20:29:07.728Z,28.43
2022-12-13T20:31:41.351Z,28.45
2022-12-13T20:34:19.119Z,28.46
2022-12-13T20:36:49.327Z,28.45
2022-12-13T20:39:19.580Z,28.44
2022-12-13T20:41:49.942Z,28.41
2022-12-13T20:44:21.375Z,28.38
2022-12-13T20:46:51.210Z,28.37
2022-12-13T20:49:21.298Z,28.38
2022-12-13T20:51:51.537Z,28.37
2022-12-13T20:54:21.635Z,28.32
2022-12-13T20:56:51.837Z,28.34
2022-12-13T20:59:22.014Z,28.33
2022-12-13T21:01:52.310Z,28.37
2022-12-13T21:04:22.833Z,28.31
2022-12-13T21:06:54.241Z,28.32
2022-12-13T21:09:24.483Z,28.34
2022-12-13T21:11:54.656Z,28.29
2022-12-13T21:14:27.808Z,28.30
2022-12-13T21:17:03.307Z,28.27
2022-12-13T21:19:39.917Z,28.29
2022-12-13T21:22:10.798Z,28.26
2022-12-13T21:24:41.060Z,28.31
2022-12-13T21:27:11.163Z,28.30
2022-12-13T21:29:41.117Z,28.24
2022-12-13T21:32:11.416Z,28.27
2022-12-13T21:34:42.970Z,28.25
2022-12-13T21:37:13.241Z,28.22
2022-12-13T21:39:43.441Z,28.23
2022-12-13T21:42:13.648Z,28.25
2022-12-13T21:44:43.786Z,28.20
2022-12-13T21:47:14.062Z,28.19
2022-12-13T21:49:48.620Z,28.19
2022-12-13T21:52:19.818Z,28.16
2022-12-13T21:54:52.938Z,28.18
2022-12-13T21:57:48.099Z,28.18
2022-12-13T22:00:18.681Z,28.19
2022-12-13T22:02:48.811Z,28.15
2022-12-13T22:05:18.810Z,28.16
2022-12-13T22:07:48.796Z,28.17
2022-12-13T22:10:18.853Z,28.10
2022-12-13T22:12:48.873Z,28.13
2022-12-13T22:15:20.178Z,28.10
2022-12-13T22:17:50.297Z,28.08
2022-12-13T22:20:20.349Z,28.07
2022-12-13T22:22:50.793Z,28.08
2022-12-13T22:25:21.003Z,28.10
2022-12-13T22:27:51.153Z,28.16
2022-12-13T22:30:21.255Z,28.17
2022-12-13T22:32:51.251Z,28.09
2022-12-13T22:35:21.273Z,28.07
2022-12-13T22:37:52.235Z,28.06
2022-12-13T22:40:22.717Z,28.06
2022-12-13T22:42:52.883Z,28.10
2022-12-13T22:45:23.308Z,28.08
2022-12-13T22:47:53.530Z,28.08
2022-12-13T22:50:23.702Z,28.05
2022-12-13T22:52:53.741Z,28.01
2022-12-13T22:55:23.856Z,28.01
2022-12-13T22:57:54.130Z,27.99
2022-12-13T23:00:24.501Z,27.86
2022-12-13T23:02:57.656Z,27.72
2022-12-13T23:05:27.861Z,27.66
2022-12-13T23:07:57.964Z,27.61
2022-12-13T23:10:46.059Z,27.54
2022-12-13T23:13:16.719Z,27.53
2022-12-13T23:15:49.446Z,27.59
2022-12-13T23:18:19.826Z,27.62
2022-12-13T23:20:49.856Z,27.66
2022-12-13T23:23:19.795Z,27.70
2022-12-13T23:25:49.814Z,27.70
2022-12-13T23:28:19.932Z,27.69
2022-12-13T23:30:49.975Z,27.69
2022-12-13T23:33:19.948Z,27.69
2022-12-13T23:35:59.258Z,27.69
2022-12-13T23:38:30.735Z,27.75
2022-12-13T23:41:04.477Z,27.73
2022-12-13T23:43:35.976Z,27.70
2022-12-13T23:46:06.726Z,27.71
2022-12-13T23:48:37.184Z,27.68
2022-12-13T23:51:09.658Z,27.66
2022-12-13T23:53:39.980Z,27.67
2022-12-13T23:56:12.826Z,27.73
2022-12-13T23:58:44.879Z,27.69
